sensor_id;sensor_type;location;lat;lon;timestamp;temperature;humidity
2226;DHT22;1119;48.288;8.726;2023-03-23T00:01:38;13.20;60.90
2226;DHT22;1119;48.288;8.726;2023-03-23T00:04:26;13.20;61.10
2226;DHT22;1119;48.288;8.726;2023-03-23T00:07:19;13.10;61.30
2226;DHT22;1119;48.288;8.726;2023-03-23T00:10:08;13.10;61.30
2226;DHT22;1119;48.288;8.726;2023-03-23T00:12:55;13.10;61.20
2226;DHT22;1119;48.288;8.726;2023-03-23T00:15:45;13.00;61.20
2226;DHT22;1119;48.288;8.726;2023-03-23T00:18:34;13.10;61.20
2226;DHT22;1119;48.288;8.726;2023-03-23T00:21:22;13.00;61.30
2226;DHT22;1119;48.288;8.726;2023-03-23T00:24:19;13.00;61.50
2226;DHT22;1119;48.288;8.726;2023-03-23T00:27:07;12.90;61.80
2226;DHT22;1119;48.288;8.726;2023-03-23T00:29:58;12.80;62.00
2226;DHT22;1119;48.288;8.726;2023-03-23T00:32:47;12.80;62.20
2226;DHT22;1119;48.288;8.726;2023-03-23T00:35:36;12.80;62.40
2226;DHT22;1119;48.288;8.726;2023-03-23T00:38:24;12.80;62.50
2226;DHT22;1119;48.288;8.726;2023-03-23T00:41:13;12.80;62.70
2226;DHT22;1119;48.288;8.726;2023-03-23T00:44:01;12.80;62.70
2226;DHT22;1119;48.288;8.726;2023-03-23T00:46:49;12.90;63.00
2226;DHT22;1119;48.288;8.726;2023-03-23T00:49:38;12.90;63.00
2226;DHT22;1119;48.288;8.726;2023-03-23T00:52:27;12.90;63.20
2226;DHT22;1119;48.288;8.726;2023-03-23T00:55:14;12.90;63.00
2226;DHT22;1119;48.288;8.726;2023-03-23T00:58:05;13.00;62.80
2226;DHT22;1119;48.288;8.726;2023-03-23T01:00:53;12.90;62.70
2226;DHT22;1119;48.288;8.726;2023-03-23T01:03:42;12.80;62.80
2226;DHT22;1119;48.288;8.726;2023-03-23T01:06:34;12.70;63.20
2226;DHT22;1119;48.288;8.726;2023-03-23T01:09:24;12.70;63.60
2226;DHT22;1119;48.288;8.726;2023-03-23T01:12:12;12.60;63.90
2226;DHT22;1119;48.288;8.726;2023-03-23T01:15:00;12.60;64.00
2226;DHT22;1119;48.288;8.726;2023-03-23T01:17:48;12.70;64.10
2226;DHT22;1119;48.288;8.726;2023-03-23T01:20:36;12.60;64.20
2226;DHT22;1119;48.288;8.726;2023-03-23T01:23:25;12.70;64.30
2226;DHT22;1119;48.288;8.726;2023-03-23T01:26:14;12.60;64.60
2226;DHT22;1119;48.288;8.726;2023-03-23T01:29:03;12.50;64.60
2226;DHT22;1119;48.288;8.726;2023-03-23T01:31:51;12.50;64.80
2226;DHT22;1119;48.288;8.726;2023-03-23T01:34:39;12.50;64.60
2226;DHT22;1119;48.288;8.726;2023-03-23T01:37:27;12.50;64.50
2226;DHT22;1119;48.288;8.726;2023-03-23T01:40:17;12.50;64.50
2226;DHT22;1119;48.288;8.726;2023-03-23T01:43:10;12.50;64.50
2226;DHT22;1119;48.288;8.726;2023-03-23T01:46:03;12.50;64.60
2226;DHT22;1119;48.288;8.726;2023-03-23T01:48:50;12.60;64.60
2226;DHT22;1119;48.288;8.726;2023-03-23T01:51:41;11.50;63.40
2226;DHT22;1119;48.288;8.726;2023-03-23T01:54:33;12.60;64.80
2226;DHT22;1119;48.288;8.726;2023-03-23T01:57:26;12.50;64.90
2226;DHT22;1119;48.288;8.726;2023-03-23T02:00:17;12.50;65.10
2226;DHT22;1119;48.288;8.726;2023-03-23T02:03:11;12.50;65.40
2226;DHT22;1119;48.288;8.726;2023-03-23T02:06:02;12.40;65.50
2226;DHT22;1119;48.288;8.726;2023-03-23T02:08:58;12.40;65.50
2226;DHT22;1119;48.288;8.726;2023-03-23T02:11:46;12.50;65.50
2226;DHT22;1119;48.288;8.726;2023-03-23T02:14:37;12.50;65.40
2226;DHT22;1119;48.288;8.726;2023-03-23T02:17:30;12.50;65.30
2226;DHT22;1119;48.288;8.726;2023-03-23T02:20:34;12.60;65.30
2226;DHT22;1119;48.288;8.726;2023-03-23T02:23:45;12.60;65.30
2226;DHT22;1119;48.288;8.726;2023-03-23T02:26:58;12.60;65.40
2226;DHT22;1119;48.288;8.726;2023-03-23T02:30:14;12.70;65.30
2226;DHT22;1119;48.288;8.726;2023-03-23T02:33:33;12.70;65.00
2226;DHT22;1119;48.288;8.726;2023-03-23T02:36:28;12.80;64.70
2226;DHT22;1119;48.288;8.726;2023-03-23T02:39:22;12.80;64.40
2226;DHT22;1119;48.288;8.726;2023-03-23T02:42:14;12.80;64.40
2226;DHT22;1119;48.288;8.726;2023-03-23T02:45:06;13.60;65.50
2226;DHT22;1119;48.288;8.726;2023-03-23T02:47:56;12.80;64.80
2226;DHT22;1119;48.288;8.726;2023-03-23T02:50:49;12.80;65.30
2226;DHT22;1119;48.288;8.726;2023-03-23T02:53:41;12.70;65.20
2226;DHT22;1119;48.288;8.726;2023-03-23T02:56:31;12.70;65.30
2226;DHT22;1119;48.288;8.726;2023-03-23T02:59:21;12.70;65.30
2226;DHT22;1119;48.288;8.726;2023-03-23T03:02:12;12.70;65.40
2226;DHT22;1119;48.288;8.726;2023-03-23T03:05:06;12.80;65.40
2226;DHT22;1119;48.288;8.726;2023-03-23T03:08:06;12.70;65.50
2226;DHT22;1119;48.288;8.726;2023-03-23T03:11:03;12.80;65.60
2226;DHT22;1119;48.288;8.726;2023-03-23T03:13:55;12.80;65.40
2226;DHT22;1119;48.288;8.726;2023-03-23T03:16:52;12.80;65.20
2226;DHT22;1119;48.288;8.726;2023-03-23T03:19:43;12.80;65.10
2226;DHT22;1119;48.288;8.726;2023-03-23T03:22:33;12.80;65.20
2226;DHT22;1119;48.288;8.726;2023-03-23T03:25:25;12.80;65.60
2226;DHT22;1119;48.288;8.726;2023-03-23T03:28:17;12.90;66.50
2226;DHT22;1119;48.288;8.726;2023-03-23T03:31:08;12.90;65.60
2226;DHT22;1119;48.288;8.726;2023-03-23T03:33:57;12.90;65.30
2226;DHT22;1119;48.288;8.726;2023-03-23T03:36:48;12.90;65.40
2226;DHT22;1119;48.288;8.726;2023-03-23T03:39:38;12.90;65.40
2226;DHT22;1119;48.288;8.726;2023-03-23T03:42:28;12.80;65.10
2226;DHT22;1119;48.288;8.726;2023-03-23T03:45:18;12.80;65.20
2226;DHT22;1119;48.288;8.726;2023-03-23T03:48:06;12.80;65.00
2226;DHT22;1119;48.288;8.726;2023-03-23T03:50:54;12.90;64.50
2226;DHT22;1119;48.288;8.726;2023-03-23T03:53:43;12.90;64.40
2226;DHT22;1119;48.288;8.726;2023-03-23T03:56:31;12.90;64.30
2226;DHT22;1119;48.288;8.726;2023-03-23T03:59:37;13.00;64.30
2226;DHT22;1119;48.288;8.726;2023-03-23T04:02:45;13.00;64.30
2226;DHT22;1119;48.288;8.726;2023-03-23T04:05:44;13.00;64.10
2226;DHT22;1119;48.288;8.726;2023-03-23T04:08:32;13.00;64.00
2226;DHT22;1119;48.288;8.726;2023-03-23T04:11:19;13.00;64.00
2226;DHT22;1119;48.288;8.726;2023-03-23T04:14:07;13.00;63.90
2226;DHT22;1119;48.288;8.726;2023-03-23T04:17:05;13.00;63.90
2226;DHT22;1119;48.288;8.726;2023-03-23T04:19:54;13.00;64.00
2226;DHT22;1119;48.288;8.726;2023-03-23T04:22:45;13.00;63.90
2226;DHT22;1119;48.288;8.726;2023-03-23T04:25:35;13.10;63.90
2226;DHT22;1119;48.288;8.726;2023-03-23T04:28:25;13.10;63.90
2226;DHT22;1119;48.288;8.726;2023-03-23T04:31:32;13.00;64.00
2226;DHT22;1119;48.288;8.726;2023-03-23T04:34:31;13.00;64.10
2226;DHT22;1119;48.288;8.726;2023-03-23T04:37:21;13.00;64.00
2226;DHT22;1119;48.288;8.726;2023-03-23T04:40:12;13.00;64.10
2226;DHT22;1119;48.288;8.726;2023-03-23T04:43:05;12.90;64.10
2226;DHT22;1119;48.288;8.726;2023-03-23T04:46:28;12.90;64.10
2226;DHT22;1119;48.288;8.726;2023-03-23T04:49:19;13.00;64.00
2226;DHT22;1119;48.288;8.726;2023-03-23T04:52:13;13.00;64.20
2226;DHT22;1119;48.288;8.726;2023-03-23T04:55:06;13.00;64.10
2226;DHT22;1119;48.288;8.726;2023-03-23T04:57:55;13.00;63.90
2226;DHT22;1119;48.288;8.726;2023-03-23T05:00:57;13.00;64.10
2226;DHT22;1119;48.288;8.726;2023-03-23T05:03:45;13.00;64.20
2226;DHT22;1119;48.288;8.726;2023-03-23T05:06:34;13.00;64.20
2226;DHT22;1119;48.288;8.726;2023-03-23T05:09:32;13.00;64.50
2226;DHT22;1119;48.288;8.726;2023-03-23T05:12:19;13.00;64.30
2226;DHT22;1119;48.288;8.726;2023-03-23T05:15:19;12.90;64.40
2226;DHT22;1119;48.288;8.726;2023-03-23T05:18:07;12.90;64.50
2226;DHT22;1119;48.288;8.726;2023-03-23T05:20:59;12.90;64.50
2226;DHT22;1119;48.288;8.726;2023-03-23T05:23:51;12.90;64.70
2226;DHT22;1119;48.288;8.726;2023-03-23T05:26:42;12.90;64.70
2226;DHT22;1119;48.288;8.726;2023-03-23T05:29:38;12.90;64.90
2226;DHT22;1119;48.288;8.726;2023-03-23T05:32:27;12.90;64.80
2226;DHT22;1119;48.288;8.726;2023-03-23T05:35:22;12.90;65.00
2226;DHT22;1119;48.288;8.726;2023-03-23T05:38:11;12.80;65.10
2226;DHT22;1119;48.288;8.726;2023-03-23T05:41:00;12.80;65.10
2226;DHT22;1119;48.288;8.726;2023-03-23T05:43:58;12.80;65.10
2226;DHT22;1119;48.288;8.726;2023-03-23T05:46:58;12.80;65.20
2226;DHT22;1119;48.288;8.726;2023-03-23T05:49:46;12.80;65.30
2226;DHT22;1119;48.288;8.726;2023-03-23T05:52:38;12.80;65.30
2226;DHT22;1119;48.288;8.726;2023-03-23T05:55:29;12.80;65.40
2226;DHT22;1119;48.288;8.726;2023-03-23T05:58:33;12.80;65.70
2226;DHT22;1119;48.288;8.726;2023-03-23T06:01:24;12.80;65.70
2226;DHT22;1119;48.288;8.726;2023-03-23T06:04:12;13.00;65.60
2226;DHT22;1119;48.288;8.726;2023-03-23T06:07:08;13.00;65.70
2226;DHT22;1119;48.288;8.726;2023-03-23T06:09:59;12.90;65.70
2226;DHT22;1119;48.288;8.726;2023-03-23T06:12:57;12.90;65.70
2226;DHT22;1119;48.288;8.726;2023-03-23T06:15:55;12.90;66.10
2226;DHT22;1119;48.288;8.726;2023-03-23T06:19:03;13.00;66.30
2226;DHT22;1119;48.288;8.726;2023-03-23T06:21:56;13.00;66.60
2226;DHT22;1119;48.288;8.726;2023-03-23T06:25:09;13.00;66.80
2226;DHT22;1119;48.288;8.726;2023-03-23T06:28:01;13.00;66.60
2226;DHT22;1119;48.288;8.726;2023-03-23T06:30:49;13.10;66.60
2226;DHT22;1119;48.288;8.726;2023-03-23T06:33:38;13.10;66.30
2226;DHT22;1119;48.288;8.726;2023-03-23T06:36:46;13.10;66.30
2226;DHT22;1119;48.288;8.726;2023-03-23T06:39:42;13.10;66.50
2226;DHT22;1119;48.288;8.726;2023-03-23T06:42:48;13.10;66.60
2226;DHT22;1119;48.288;8.726;2023-03-23T06:45:58;13.10;66.60
2226;DHT22;1119;48.288;8.726;2023-03-23T06:49:21;13.10;67.00
2226;DHT22;1119;48.288;8.726;2023-03-23T06:52:26;13.10;67.50
2226;DHT22;1119;48.288;8.726;2023-03-23T06:55:14;13.10;67.70
2226;DHT22;1119;48.288;8.726;2023-03-23T06:58:03;13.20;68.40
2226;DHT22;1119;48.288;8.726;2023-03-23T07:00:53;13.20;68.70
2226;DHT22;1119;48.288;8.726;2023-03-23T07:03:43;13.20;68.30
2226;DHT22;1119;48.288;8.726;2023-03-23T07:06:34;13.20;68.50
2226;DHT22;1119;48.288;8.726;2023-03-23T07:09:23;13.20;68.50
2226;DHT22;1119;48.288;8.726;2023-03-23T07:12:11;13.20;68.60
2226;DHT22;1119;48.288;8.726;2023-03-23T07:15:06;13.30;68.30
2226;DHT22;1119;48.288;8.726;2023-03-23T07:17:56;13.30;68.30
2226;DHT22;1119;48.288;8.726;2023-03-23T07:20:52;13.40;68.40
2226;DHT22;1119;48.288;8.726;2023-03-23T07:23:44;13.50;68.50
2226;DHT22;1119;48.288;8.726;2023-03-23T07:26:39;13.50;68.10
2226;DHT22;1119;48.288;8.726;2023-03-23T07:29:28;13.50;68.30
2226;DHT22;1119;48.288;8.726;2023-03-23T07:32:25;13.50;68.50
2226;DHT22;1119;48.288;8.726;2023-03-23T07:35:13;13.50;68.90
2226;DHT22;1119;48.288;8.726;2023-03-23T07:38:31;13.50;69.20
2226;DHT22;1119;48.288;8.726;2023-03-23T07:41:19;13.50;69.40
2226;DHT22;1119;48.288;8.726;2023-03-23T07:44:10;13.60;69.70
2226;DHT22;1119;48.288;8.726;2023-03-23T07:47:01;13.60;69.60
2226;DHT22;1119;48.288;8.726;2023-03-23T07:49:52;13.70;69.80
2226;DHT22;1119;48.288;8.726;2023-03-23T07:52:47;13.80;69.80
2226;DHT22;1119;48.288;8.726;2023-03-23T07:55:39;14.10;69.40
2226;DHT22;1119;48.288;8.726;2023-03-23T07:58:37;14.20;69.30
2226;DHT22;1119;48.288;8.726;2023-03-23T08:01:26;14.20;69.30
2226;DHT22;1119;48.288;8.726;2023-03-23T08:04:32;14.30;69.80
2226;DHT22;1119;48.288;8.726;2023-03-23T08:07:28;14.50;69.80
2226;DHT22;1119;48.288;8.726;2023-03-23T08:10:34;15.10;68.50
2226;DHT22;1119;48.288;8.726;2023-03-23T08:13:46;15.40;67.60
2226;DHT22;1119;48.288;8.726;2023-03-23T08:17:02;15.40;67.30
2226;DHT22;1119;48.288;8.726;2023-03-23T08:20:22;15.30;67.70
2226;DHT22;1119;48.288;8.726;2023-03-23T08:23:14;15.20;68.40
2226;DHT22;1119;48.288;8.726;2023-03-23T08:26:20;15.10;69.30
2226;DHT22;1119;48.288;8.726;2023-03-23T08:29:26;15.00;69.80
2226;DHT22;1119;48.288;8.726;2023-03-23T08:32:33;14.80;70.70
2226;DHT22;1119;48.288;8.726;2023-03-23T08:35:30;14.90;71.40
2226;DHT22;1119;48.288;8.726;2023-03-23T08:38:30;15.00;71.30
2226;DHT22;1119;48.288;8.726;2023-03-23T08:41:36;15.00;71.10
2226;DHT22;1119;48.288;8.726;2023-03-23T08:44:43;14.90;71.00
2226;DHT22;1119;48.288;8.726;2023-03-23T08:47:51;14.90;71.20
2226;DHT22;1119;48.288;8.726;2023-03-23T08:50:59;14.80;71.40
2226;DHT22;1119;48.288;8.726;2023-03-23T08:54:16;14.70;71.60
2226;DHT22;1119;48.288;8.726;2023-03-23T08:57:24;14.80;72.00
2226;DHT22;1119;48.288;8.726;2023-03-23T09:00:38;14.70;72.10
2226;DHT22;1119;48.288;8.726;2023-03-23T09:03:33;14.70;72.60
2226;DHT22;1119;48.288;8.726;2023-03-23T09:06:39;14.80;72.80
2226;DHT22;1119;48.288;8.726;2023-03-23T09:09:27;15.10;72.80
2226;DHT22;1119;48.288;8.726;2023-03-23T09:12:14;15.20;71.80
2226;DHT22;1119;48.288;8.726;2023-03-23T09:15:03;15.40;71.70
2226;DHT22;1119;48.288;8.726;2023-03-23T09:17:55;15.50;70.90
2226;DHT22;1119;48.288;8.726;2023-03-23T09:20:45;15.50;70.30
2226;DHT22;1119;48.288;8.726;2023-03-23T09:23:33;15.50;70.60
2226;DHT22;1119;48.288;8.726;2023-03-23T09:26:20;15.60;70.20
2226;DHT22;1119;48.288;8.726;2023-03-23T09:29:08;16.00;70.50
2226;DHT22;1119;48.288;8.726;2023-03-23T09:31:57;16.60;68.80
2226;DHT22;1119;48.288;8.726;2023-03-23T09:34:46;16.90;67.30
2226;DHT22;1119;48.288;8.726;2023-03-23T09:37:35;16.90;66.00
2226;DHT22;1119;48.288;8.726;2023-03-23T09:40:24;17.00;66.50
2226;DHT22;1119;48.288;8.726;2023-03-23T09:43:29;17.00;67.30
2226;DHT22;1119;48.288;8.726;2023-03-23T09:46:33;17.10;66.50
2226;DHT22;1119;48.288;8.726;2023-03-23T09:49:30;17.10;65.60
2226;DHT22;1119;48.288;8.726;2023-03-23T09:52:20;16.80;65.50
2226;DHT22;1119;48.288;8.726;2023-03-23T09:55:12;16.60;66.20
2226;DHT22;1119;48.288;8.726;2023-03-23T09:58:09;16.30;66.80
2226;DHT22;1119;48.288;8.726;2023-03-23T10:01:02;16.00;68.50
2226;DHT22;1119;48.288;8.726;2023-03-23T10:03:59;15.90;68.80
2226;DHT22;1119;48.288;8.726;2023-03-23T10:06:50;15.90;69.50
2226;DHT22;1119;48.288;8.726;2023-03-23T10:09:38;15.80;69.10
2226;DHT22;1119;48.288;8.726;2023-03-23T10:12:32;15.70;69.10
2226;DHT22;1119;48.288;8.726;2023-03-23T10:15:26;15.70;70.10
2226;DHT22;1119;48.288;8.726;2023-03-23T10:18:18;15.60;69.90
2226;DHT22;1119;48.288;8.726;2023-03-23T10:21:13;15.50;70.20
2226;DHT22;1119;48.288;8.726;2023-03-23T10:24:07;15.60;70.60
2226;DHT22;1119;48.288;8.726;2023-03-23T10:27:04;15.60;70.00
2226;DHT22;1119;48.288;8.726;2023-03-23T10:30:00;15.50;69.90
2226;DHT22;1119;48.288;8.726;2023-03-23T10:32:52;15.40;69.80
2226;DHT22;1119;48.288;8.726;2023-03-23T10:35:44;15.40;70.30
2226;DHT22;1119;48.288;8.726;2023-03-23T10:38:38;15.40;69.90
2226;DHT22;1119;48.288;8.726;2023-03-23T10:41:27;15.40;69.90
2226;DHT22;1119;48.288;8.726;2023-03-23T10:44:17;15.30;69.60
2226;DHT22;1119;48.288;8.726;2023-03-23T10:47:08;15.20;70.40
2226;DHT22;1119;48.288;8.726;2023-03-23T10:49:57;15.30;70.80
2226;DHT22;1119;48.288;8.726;2023-03-23T10:52:50;15.40;70.20
2226;DHT22;1119;48.288;8.726;2023-03-23T10:55:40;15.40;70.30
2226;DHT22;1119;48.288;8.726;2023-03-23T10:58:32;15.50;71.10
2226;DHT22;1119;48.288;8.726;2023-03-23T11:01:30;15.60;70.00
2226;DHT22;1119;48.288;8.726;2023-03-23T11:04:20;15.80;70.90
2226;DHT22;1119;48.288;8.726;2023-03-23T11:07:16;15.80;69.40
2226;DHT22;1119;48.288;8.726;2023-03-23T11:10:16;15.90;69.50
2226;DHT22;1119;48.288;8.726;2023-03-23T11:13:14;15.90;69.10
2226;DHT22;1119;48.288;8.726;2023-03-23T11:16:02;16.00;69.40
2226;DHT22;1119;48.288;8.726;2023-03-23T11:18:50;15.90;69.10
2226;DHT22;1119;48.288;8.726;2023-03-23T11:21:40;15.90;68.70
2226;DHT22;1119;48.288;8.726;2023-03-23T11:24:35;15.80;69.00
2226;DHT22;1119;48.288;8.726;2023-03-23T11:27:24;15.90;69.70
2226;DHT22;1119;48.288;8.726;2023-03-23T11:30:21;16.00;68.50
2226;DHT22;1119;48.288;8.726;2023-03-23T11:33:11;16.00;67.90
2226;DHT22;1119;48.288;8.726;2023-03-23T11:36:01;16.10;67.90
2226;DHT22;1119;48.288;8.726;2023-03-23T11:38:53;16.20;67.00
2226;DHT22;1119;48.288;8.726;2023-03-23T11:41:43;16.20;67.10
2226;DHT22;1119;48.288;8.726;2023-03-23T11:44:33;16.20;67.10
2226;DHT22;1119;48.288;8.726;2023-03-23T11:47:30;16.20;66.70
2226;DHT22;1119;48.288;8.726;2023-03-23T11:50:30;16.30;67.10
2226;DHT22;1119;48.288;8.726;2023-03-23T11:53:30;16.30;66.00
2226;DHT22;1119;48.288;8.726;2023-03-23T11:56:27;16.30;65.40
2226;DHT22;1119;48.288;8.726;2023-03-23T11:59:25;16.40;65.30
2226;DHT22;1119;48.288;8.726;2023-03-23T12:02:30;16.50;66.10
2226;DHT22;1119;48.288;8.726;2023-03-23T12:05:32;16.50;65.50
2226;DHT22;1119;48.288;8.726;2023-03-23T12:08:38;16.50;65.30
2226;DHT22;1119;48.288;8.726;2023-03-23T12:11:37;16.40;64.60
2226;DHT22;1119;48.288;8.726;2023-03-23T12:14:36;16.30;64.30
2226;DHT22;1119;48.288;8.726;2023-03-23T12:17:37;16.20;64.10
2226;DHT22;1119;48.288;8.726;2023-03-23T12:20:39;16.30;63.90
2226;DHT22;1119;48.288;8.726;2023-03-23T12:23:39;16.30;64.40
2226;DHT22;1119;48.288;8.726;2023-03-23T12:26:31;16.30;64.00
2226;DHT22;1119;48.288;8.726;2023-03-23T12:29:38;16.30;62.80
2226;DHT22;1119;48.288;8.726;2023-03-23T12:32:58;16.30;63.00
2226;DHT22;1119;48.288;8.726;2023-03-23T12:36:00;16.30;62.50
2226;DHT22;1119;48.288;8.726;2023-03-23T12:39:08;16.30;63.70
2226;DHT22;1119;48.288;8.726;2023-03-23T12:42:23;16.30;63.80
2226;DHT22;1119;48.288;8.726;2023-03-23T12:45:23;16.30;62.70
2226;DHT22;1119;48.288;8.726;2023-03-23T12:48:26;16.30;62.40
2226;DHT22;1119;48.288;8.726;2023-03-23T12:51:21;16.30;62.80
2226;DHT22;1119;48.288;8.726;2023-03-23T12:54:16;16.30;62.40
2226;DHT22;1119;48.288;8.726;2023-03-23T12:57:12;16.20;62.50
2226;DHT22;1119;48.288;8.726;2023-03-23T13:00:08;16.30;63.20
2226;DHT22;1119;48.288;8.726;2023-03-23T13:03:14;16.30;62.60
2226;DHT22;1119;48.288;8.726;2023-03-23T13:06:09;16.40;62.80
2226;DHT22;1119;48.288;8.726;2023-03-23T13:09:09;16.40;62.20
2226;DHT22;1119;48.288;8.726;2023-03-23T13:12:01;16.40;62.50
2226;DHT22;1119;48.288;8.726;2023-03-23T13:14:58;16.30;61.40
2226;DHT22;1119;48.288;8.726;2023-03-23T13:17:55;16.30;61.50
2226;DHT22;1119;48.288;8.726;2023-03-23T13:20:54;16.20;61.40
2226;DHT22;1119;48.288;8.726;2023-03-23T13:23:49;16.10;61.30
2226;DHT22;1119;48.288;8.726;2023-03-23T13:26:41;16.10;62.10
2226;DHT22;1119;48.288;8.726;2023-03-23T13:29:29;16.00;62.00
2226;DHT22;1119;48.288;8.726;2023-03-23T13:32:20;16.00;62.40
2226;DHT22;1119;48.288;8.726;2023-03-23T13:35:12;16.00;62.30
2226;DHT22;1119;48.288;8.726;2023-03-23T13:38:01;16.00;62.50
2226;DHT22;1119;48.288;8.726;2023-03-23T13:41:07;15.90;62.10
2226;DHT22;1119;48.288;8.726;2023-03-23T13:44:16;15.90;62.00
2226;DHT22;1119;48.288;8.726;2023-03-23T13:47:26;15.90;62.50
2226;DHT22;1119;48.288;8.726;2023-03-23T13:50:28;15.90;62.70
2226;DHT22;1119;48.288;8.726;2023-03-23T13:53:24;15.90;62.50
2226;DHT22;1119;48.288;8.726;2023-03-23T13:56:20;16.00;63.20
2226;DHT22;1119;48.288;8.726;2023-03-23T13:59:14;16.00;62.80
2226;DHT22;1119;48.288;8.726;2023-03-23T14:02:38;16.10;63.10
2226;DHT22;1119;48.288;8.726;2023-03-23T14:05:34;16.10;62.90
2226;DHT22;1119;48.288;8.726;2023-03-23T14:08:25;16.20;63.20
2226;DHT22;1119;48.288;8.726;2023-03-23T14:11:26;16.20;63.20
2226;DHT22;1119;48.288;8.726;2023-03-23T14:14:22;16.20;62.90
2226;DHT22;1119;48.288;8.726;2023-03-23T14:17:15;16.10;62.00
2226;DHT22;1119;48.288;8.726;2023-03-23T14:20:06;16.00;62.20
2226;DHT22;1119;48.288;8.726;2023-03-23T14:23:01;16.00;62.80
2226;DHT22;1119;48.288;8.726;2023-03-23T14:25:55;16.00;63.40
2226;DHT22;1119;48.288;8.726;2023-03-23T14:28:52;16.00;63.40
2226;DHT22;1119;48.288;8.726;2023-03-23T14:31:41;16.00;63.60
2226;DHT22;1119;48.288;8.726;2023-03-23T14:34:31;16.00;63.40
2226;DHT22;1119;48.288;8.726;2023-03-23T14:37:21;16.00;62.80
2226;DHT22;1119;48.288;8.726;2023-03-23T14:40:13;15.90;63.20
2226;DHT22;1119;48.288;8.726;2023-03-23T14:43:03;15.80;64.00
2226;DHT22;1119;48.288;8.726;2023-03-23T14:45:53;15.80;63.60
2226;DHT22;1119;48.288;8.726;2023-03-23T14:48:41;15.70;63.80
2226;DHT22;1119;48.288;8.726;2023-03-23T14:51:29;15.80;64.30
2226;DHT22;1119;48.288;8.726;2023-03-23T14:54:24;15.70;64.10
2226;DHT22;1119;48.288;8.726;2023-03-23T14:57:15;15.70;64.20
2226;DHT22;1119;48.288;8.726;2023-03-23T15:00:10;15.70;64.00
2226;DHT22;1119;48.288;8.726;2023-03-23T15:03:03;15.60;64.30
2226;DHT22;1119;48.288;8.726;2023-03-23T15:05:57;15.60;64.60
2226;DHT22;1119;48.288;8.726;2023-03-23T15:08:47;15.50;64.80
2226;DHT22;1119;48.288;8.726;2023-03-23T15:11:39;15.50;64.70
2226;DHT22;1119;48.288;8.726;2023-03-23T15:14:28;15.40;65.30
2226;DHT22;1119;48.288;8.726;2023-03-23T15:17:22;15.40;65.90
2226;DHT22;1119;48.288;8.726;2023-03-23T15:20:19;15.40;66.20
2226;DHT22;1119;48.288;8.726;2023-03-23T15:23:16;15.40;66.00
2226;DHT22;1119;48.288;8.726;2023-03-23T15:26:06;15.40;66.10
2226;DHT22;1119;48.288;8.726;2023-03-23T15:29:08;15.40;67.10
2226;DHT22;1119;48.288;8.726;2023-03-23T15:31:59;15.40;65.90
2226;DHT22;1119;48.288;8.726;2023-03-23T15:34:49;15.30;66.10
2226;DHT22;1119;48.288;8.726;2023-03-23T15:37:40;15.30;66.50
2226;DHT22;1119;48.288;8.726;2023-03-23T15:40:33;15.40;67.10
2226;DHT22;1119;48.288;8.726;2023-03-23T15:43:25;15.30;67.00
2226;DHT22;1119;48.288;8.726;2023-03-23T15:46:22;15.30;67.00
2226;DHT22;1119;48.288;8.726;2023-03-23T15:49:11;15.30;67.30
2226;DHT22;1119;48.288;8.726;2023-03-23T15:52:00;15.30;67.40
2226;DHT22;1119;48.288;8.726;2023-03-23T15:54:48;15.40;67.60
2226;DHT22;1119;48.288;8.726;2023-03-23T15:57:36;15.30;67.90
2226;DHT22;1119;48.288;8.726;2023-03-23T16:00:25;15.30;68.90
2226;DHT22;1119;48.288;8.726;2023-03-23T16:03:18;15.30;68.30
2226;DHT22;1119;48.288;8.726;2023-03-23T16:06:09;15.40;68.70
2226;DHT22;1119;48.288;8.726;2023-03-23T16:08:58;15.40;68.70
2226;DHT22;1119;48.288;8.726;2023-03-23T16:11:45;15.30;68.60
2226;DHT22;1119;48.288;8.726;2023-03-23T16:14:33;15.40;68.90
2226;DHT22;1119;48.288;8.726;2023-03-23T16:17:21;15.40;68.50
2226;DHT22;1119;48.288;8.726;2023-03-23T16:20:12;15.40;68.50
2226;DHT22;1119;48.288;8.726;2023-03-23T16:23:01;15.30;67.90
2226;DHT22;1119;48.288;8.726;2023-03-23T16:25:49;15.40;68.10
2226;DHT22;1119;48.288;8.726;2023-03-23T16:28:37;15.30;67.70
2226;DHT22;1119;48.288;8.726;2023-03-23T16:31:25;15.30;68.00
2226;DHT22;1119;48.288;8.726;2023-03-23T16:34:12;15.30;68.10
2226;DHT22;1119;48.288;8.726;2023-03-23T16:37:02;15.30;68.50
2226;DHT22;1119;48.288;8.726;2023-03-23T16:39:51;15.20;68.10
2226;DHT22;1119;48.288;8.726;2023-03-23T16:42:39;15.20;68.00
2226;DHT22;1119;48.288;8.726;2023-03-23T16:45:27;15.20;68.20
2226;DHT22;1119;48.288;8.726;2023-03-23T16:48:15;15.20;68.10
2226;DHT22;1119;48.288;8.726;2023-03-23T16:51:03;15.20;68.50
2226;DHT22;1119;48.288;8.726;2023-03-23T16:53:52;15.20;68.50
2226;DHT22;1119;48.288;8.726;2023-03-23T16:56:40;15.20;68.70
2226;DHT22;1119;48.288;8.726;2023-03-23T16:59:31;15.20;68.60
2226;DHT22;1119;48.288;8.726;2023-03-23T17:02:19;15.20;68.40
2226;DHT22;1119;48.288;8.726;2023-03-23T17:05:07;15.20;68.50
2226;DHT22;1119;48.288;8.726;2023-03-23T17:07:57;15.10;68.70
2226;DHT22;1119;48.288;8.726;2023-03-23T17:10:46;15.20;68.80
2226;DHT22;1119;48.288;8.726;2023-03-23T17:13:34;15.10;68.50
2226;DHT22;1119;48.288;8.726;2023-03-23T17:16:40;15.10;68.70
2226;DHT22;1119;48.288;8.726;2023-03-23T17:19:28;15.10;69.00
2226;DHT22;1119;48.288;8.726;2023-03-23T17:22:19;15.10;70.00
2226;DHT22;1119;48.288;8.726;2023-03-23T17:25:08;15.20;69.70
2226;DHT22;1119;48.288;8.726;2023-03-23T17:27:58;15.00;69.70
2226;DHT22;1119;48.288;8.726;2023-03-23T17:30:46;15.00;70.10
2226;DHT22;1119;48.288;8.726;2023-03-23T17:33:33;14.90;70.20
2226;DHT22;1119;48.288;8.726;2023-03-23T17:36:21;14.80;70.50
2226;DHT22;1119;48.288;8.726;2023-03-23T17:39:09;14.70;70.70
2226;DHT22;1119;48.288;8.726;2023-03-23T17:41:57;14.70;71.10
2226;DHT22;1119;48.288;8.726;2023-03-23T17:44:46;14.70;71.30
2226;DHT22;1119;48.288;8.726;2023-03-23T17:47:34;14.70;71.50
2226;DHT22;1119;48.288;8.726;2023-03-23T17:50:22;14.50;71.50
2226;DHT22;1119;48.288;8.726;2023-03-23T17:53:09;14.50;71.70
2226;DHT22;1119;48.288;8.726;2023-03-23T17:55:57;14.50;71.90
2226;DHT22;1119;48.288;8.726;2023-03-23T17:58:45;14.40;72.00
2226;DHT22;1119;48.288;8.726;2023-03-23T18:01:34;14.40;72.10
2226;DHT22;1119;48.288;8.726;2023-03-23T18:04:21;14.40;72.20
2226;DHT22;1119;48.288;8.726;2023-03-23T18:07:09;14.30;72.20
2226;DHT22;1119;48.288;8.726;2023-03-23T18:09:57;14.30;72.40
2226;DHT22;1119;48.288;8.726;2023-03-23T18:12:48;14.30;72.50
2226;DHT22;1119;48.288;8.726;2023-03-23T18:15:36;14.30;72.70
2226;DHT22;1119;48.288;8.726;2023-03-23T18:18:25;14.20;72.80
2226;DHT22;1119;48.288;8.726;2023-03-23T18:21:13;14.20;72.80
2226;DHT22;1119;48.288;8.726;2023-03-23T18:24:02;14.20;72.80
2226;DHT22;1119;48.288;8.726;2023-03-23T18:26:50;14.20;73.00
2226;DHT22;1119;48.288;8.726;2023-03-23T18:29:37;14.20;73.10
2226;DHT22;1119;48.288;8.726;2023-03-23T18:32:25;14.10;73.20
2226;DHT22;1119;48.288;8.726;2023-03-23T18:35:15;14.10;73.40
2226;DHT22;1119;48.288;8.726;2023-03-23T18:38:03;14.10;73.40
2226;DHT22;1119;48.288;8.726;2023-03-23T18:40:51;14.10;73.50
2226;DHT22;1119;48.288;8.726;2023-03-23T18:43:40;14.00;73.40
2226;DHT22;1119;48.288;8.726;2023-03-23T18:46:28;14.00;73.40
2226;DHT22;1119;48.288;8.726;2023-03-23T18:49:15;14.20;73.50
2226;DHT22;1119;48.288;8.726;2023-03-23T18:52:05;14.10;73.40
2226;DHT22;1119;48.288;8.726;2023-03-23T18:54:53;14.10;73.40